»·PEaware :: PHKIM W43-KIEN

PHKIM :: W43-KIEN

FLIGHT INFORMATION

Flight Status: Arrived
Operator: Unknown
More flights by this operator :: More flights under this callsign
Pilot: Kim B. (19519)
Aircraft: BEECH AIRCRAFT BARON
(BE58)
More flights by this aircraft type
Origin: W43 Hulett Municipal
United States
Destination: KIEN Pine Ridge
United States
More flights between these airports :: More routes between these airports
Route: RAP
File this flight plan on PilotEdge
Remarks:
Altitude:
(Current/Filed)
15,000ft
Speed:
(Current/Filed)
150kts
Departed: 24-Oct-18 04:32 PM
Arrived: 24-Oct-18 05:20 PM
Distance/Time
Traveled:
132nm/0:47
Distance/Time
To Go:
Arrived

Flight Plot

Page will automatically refresh every two minutes.

Flight plan parsing failed; only flown route is shown


Map Options




Map Legend


Flown Route
Filed Route
Departure Airport
Arrival Airport
Navaid (VOR, NDB)
Fix

Horizontal Profiles

Position Reports

Time Latitude Longitude Heading Altitude Ground
Speed
24-Oct-18 16:29 44.668740 -104.572733 285 4221ft 7kts
24-Oct-18 16:30 44.669131 -104.573604 231 4221ft 0kts
24-Oct-18 16:31 44.668671 -104.574152 147 4221ft 3kts
24-Oct-18 16:32 44.668775 -104.571446 205 4221ft 0kts
24-Oct-18 16:33 44.668946 -104.573964 230 4221ft 0kts
24-Oct-18 16:34 44.659874 -104.564694 144 4312ft 126kts
24-Oct-18 16:35 44.631254 -104.542252 111 6227ft 110kts
24-Oct-18 16:36 44.617760 -104.501021 113 7381ft 148kts
24-Oct-18 16:37 44.594235 -104.439502 117 7457ft 190kts
24-Oct-18 16:38 44.567160 -104.373686 118 7484ft 195kts
24-Oct-18 16:39 44.539453 -104.308598 119 7484ft 194kts
24-Oct-18 16:40 44.511716 -104.243669 119 7484ft 194kts
24-Oct-18 16:41 44.483988 -104.178637 119 7484ft 194kts
24-Oct-18 16:42 44.456245 -104.113613 119 7486ft 199kts
24-Oct-18 16:43 44.428141 -104.047913 119 7483ft 193kts
24-Oct-18 16:44 44.400593 -103.983633 119 7484ft 192kts
24-Oct-18 16:45 44.372996 -103.919389 119 7484ft 192kts
24-Oct-18 16:46 44.345459 -103.855450 119 7483ft 192kts
24-Oct-18 16:47 44.316271 -103.792878 140 7491ft 193kts
24-Oct-18 16:48 44.282787 -103.758667 143 7485ft 196kts
24-Oct-18 16:49 44.238577 -103.713782 143 7485ft 197kts
24-Oct-18 16:50 44.195759 -103.670269 143 7950ft 179kts
24-Oct-18 16:51 44.156156 -103.630057 143 8586ft 175kts
24-Oct-18 16:52 44.116962 -103.590349 143 9176ft 174kts
24-Oct-18 16:53 44.077042 -103.549987 143 9510ft 187kts
24-Oct-18 16:54 44.033695 -103.506260 143 9506ft 195kts
24-Oct-18 16:55 44.010393 -103.482777 143 9505ft 197kts
24-Oct-18 16:56 43.983234 -103.455423 143 9505ft 197kts
24-Oct-18 16:57 43.954410 -103.426434 143 9505ft 197kts
24-Oct-18 16:58 43.910035 -103.381880 143 9505ft 197kts
24-Oct-18 16:59 43.866033 -103.337783 144 9502ft 196kts
24-Oct-18 17:00 43.821671 -103.293407 144 9503ft 196kts
24-Oct-18 17:01 43.777415 -103.249216 144 9503ft 196kts
24-Oct-18 17:02 43.733151 -103.205099 144 9503ft 196kts
24-Oct-18 17:03 43.688745 -103.160922 144 9503ft 196kts
24-Oct-18 17:04 43.644486 -103.116975 144 9503ft 196kts
24-Oct-18 17:05 43.600087 -103.072970 144 9503ft 196kts
24-Oct-18 17:06 43.559719 -103.033029 144 9503ft 196kts
24-Oct-18 17:07 43.520487 -102.994285 144 9503ft 196kts
24-Oct-18 17:08 43.476133 -102.950549 144 9503ft 196kts
24-Oct-18 17:09 43.435733 -102.910786 144 9504ft 196kts
24-Oct-18 17:10 43.391318 -102.867125 144 9504ft 196kts
24-Oct-18 17:11 43.349600 -102.826207 144 9504ft 196kts
24-Oct-18 17:12 43.304419 -102.781977 144 9021ft 207kts
24-Oct-18 17:13 43.257785 -102.736414 143 8131ft 210kts
24-Oct-18 17:14 43.210936 -102.690723 143 7109ft 208kts
24-Oct-18 17:15 43.163737 -102.644783 143 5532ft 205kts
24-Oct-18 17:16 43.121396 -102.603636 143 3951ft 198kts
24-Oct-18 17:17 43.086941 -102.572090 151 3788ft 118kts
24-Oct-18 17:18 43.059676 -102.553201 156 3681ft 107kts
24-Oct-18 17:19 43.034133 -102.530087 123 3601ft 117kts
24-Oct-18 17:20 43.019700 -102.503883 126 3318ft 58kts
24-Oct-18 17:21 43.019991 -102.504290 307 3316ft 45kts
24-Oct-18 17:22 43.025074 -102.515595 260 3292ft 0kts
24-Oct-18 17:23 43.025401 -102.517578 346 3290ft 15kts
24-Oct-18 17:24 43.025560 -102.517748 165 3290ft 0kts
24-Oct-18 17:25 43.025560 -102.517748 165 3290ft 0kts
24-Oct-18 17:26 43.025560 -102.517748 165 3290ft 0kts

Navigation Log

Ident Type
Flight plan parsing failed, navigation log unavailable